Time;durP1;ratioP1;P1;durP2;ratioP2;P2;SDS_P1;SDS_P2;PMS_P1;PMS_P2;Temp;Humidity;BMP_temperature;BMP_pressure;BME280_temperature;BME280_humidity;BME280_pressure;Samples;Min_cycle;Max_cycle;Signal;HPM_P1;HPM_P2
2021/07/06 00:00:49;;;;;;;;;;;15.90;99.90;;;;;;5070069;28;19982;-76
2021/07/06 00:03:15;;;;;;;;;;;15.80;99.90;;;;;;5068966;28;19986;-76
2021/07/06 00:05:40;;;;;;;;;;;15.80;99.90;;;;;;5069982;28;20092;-76
2021/07/06 00:08:06;;;;;;;;;;;15.80;99.90;;;;;;5069554;28;19992;-77
2021/07/06 00:10:31;;;;;;;;;;;15.70;99.90;;;;;;5068595;28;20005;-77
2021/07/06 00:12:57;;;;;;;;;;;15.70;99.90;;;;;;5069900;28;19982;-76
2021/07/06 00:15:23;;;;;;;;;;;15.70;99.90;;;;;;5068433;28;20541;-76
2021/07/06 00:17:49;;;;;;;;;;;15.70;99.90;;;;;;5068355;28;19993;-76
2021/07/06 00:20:16;;;;;;;;;;;15.60;99.90;;;;;;5070175;28;20388;-77
2021/07/06 00:22:41;;;;;;;;;;;15.60;99.90;;;;;;5068718;28;19985;-76
2021/07/06 00:25:08;;;;;;;;;;;15.60;99.90;;;;;;5069803;28;20063;-76
2021/07/06 00:27:33;;;;;;;;;;;15.50;99.90;;;;;;5070166;28;19981;-76
2021/07/06 00:29:59;;;;;;;;;;;15.50;99.90;;;;;;5071352;28;20445;-76
2021/07/06 00:32:24;;;;;;;;;;;15.40;99.90;;;;;;5072180;28;20114;-77
2021/07/06 00:34:50;;;;;;;;;;;15.40;99.90;;;;;;5073291;28;20029;-76
2021/07/06 00:37:15;;;;;;;;;;;15.40;99.90;;;;;;5073273;28;19992;-76
2021/07/06 00:39:41;;;;;;;;;;;15.40;99.90;;;;;;5073379;28;20457;-76
2021/07/06 00:42:07;;;;;;;;;;;15.40;99.90;;;;;;5071580;28;19992;-76
2021/07/06 00:44:33;;;;;;;;;;;15.30;99.90;;;;;;5072708;28;20005;-76
2021/07/06 00:46:59;;;;;;;;;;;15.30;99.90;;;;;;5071341;28;20075;-76
2021/07/06 00:49:24;;;;;;;;;;;15.30;99.90;;;;;;5071577;28;20074;-76
2021/07/06 00:51:50;;;;;;;;;;;15.30;99.90;;;;;;5071184;28;20373;-76
2021/07/06 00:54:15;;;;;;;;;;;15.30;99.90;;;;;;5072492;28;20004;-76
2021/07/06 00:56:41;;;;;;;;;;;15.30;99.90;;;;;;5072257;28;19982;-76
2021/07/06 00:59:06;;;;;;;;;;;15.30;99.90;;;;;;5071214;28;19995;-76
2021/07/06 01:01:32;;;;;;;;;;;15.30;99.90;;;;;;5071228;28;20388;-76
2021/07/06 01:03:57;;;;;;;;;;;15.20;99.90;;;;;;5072231;28;19998;-76
2021/07/06 01:06:23;;;;;;;;;;;15.20;99.90;;;;;;5072369;28;20016;-76
2021/07/06 01:08:48;;;;;;;;;;;15.20;99.90;;;;;;5072536;28;19981;-76
2021/07/06 01:11:14;;;;;;;;;;;15.20;99.90;;;;;;5071213;28;20092;-76
2021/07/06 01:13:40;;;;;;;;;;;15.20;99.90;;;;;;5071381;28;20450;-77
2021/07/06 01:16:05;;;;;;;;;;;15.20;99.90;;;;;;5072708;28;20068;-76
2021/07/06 01:18:31;;;;;;;;;;;15.10;99.90;;;;;;5072627;28;19980;-76
2021/07/06 01:20:57;;;;;;;;;;;15.10;99.90;;;;;;5070603;28;20442;-76
2021/07/06 01:23:26;;;;;;;;;;;15.10;99.90;;;;;;5070619;28;20119;-76
2021/07/06 01:25:53;;;;;;;;;;;15.10;99.90;;;;;;5071517;28;20000;-76
2021/07/06 01:28:18;;;;;;;;;;;15.10;99.90;;;;;;5071726;28;19988;-76
2021/07/06 01:30:44;;;;;;;;;;;15.00;99.90;;;;;;5071662;28;20001;-77
2021/07/06 01:33:09;;;;;;;;;;;15.00;99.90;;;;;;5071493;28;20071;-77
2021/07/06 01:35:35;;;;;;;;;;;15.00;99.90;;;;;;5072172;28;20020;-76
2021/07/06 01:38:02;;;;;;;;;;;15.00;99.90;;;;;;5072459;28;20006;-76
2021/07/06 01:40:28;;;;;;;;;;;15.00;99.90;;;;;;5071672;28;19985;-76
2021/07/06 01:42:55;;;;;;;;;;;14.90;99.90;;;;;;5071672;28;20076;-76
2021/07/06 01:45:22;;;;;;;;;;;14.90;99.90;;;;;;5071914;28;20092;-76
2021/07/06 01:47:49;;;;;;;;;;;14.90;99.90;;;;;;5070393;28;20464;-76
2021/07/06 01:50:16;;;;;;;;;;;14.90;99.90;;;;;;5070329;28;20359;-76
2021/07/06 01:52:45;;;;;;;;;;;14.90;99.90;;;;;;5071651;28;20009;-76
2021/07/06 01:55:12;;;;;;;;;;;14.80;99.90;;;;;;5070126;28;20058;-76
2021/07/06 01:57:39;;;;;;;;;;;14.80;99.90;;;;;;5070194;28;19989;-76
2021/07/06 02:00:05;;;;;;;;;;;14.80;99.90;;;;;;5071474;28;19992;-77
2021/07/06 02:02:31;;;;;;;;;;;14.80;99.90;;;;;;5070727;28;19997;-76
2021/07/06 02:04:56;;;;;;;;;;;14.70;99.90;;;;;;5069950;28;20119;-76
2021/07/06 02:07:22;;;;;;;;;;;14.80;99.90;;;;;;5070335;28;20400;-76
2021/07/06 02:09:47;;;;;;;;;;;14.80;99.90;;;;;;5069949;28;19986;-76
2021/07/06 02:12:13;;;;;;;;;;;14.70;99.90;;;;;;5070195;28;20031;-76
2021/07/06 02:14:38;;;;;;;;;;;14.70;99.90;;;;;;5071589;28;19997;-77
2021/07/06 02:17:04;;;;;;;;;;;14.70;99.90;;;;;;5071481;28;19985;-76
2021/07/06 02:19:29;;;;;;;;;;;14.70;99.90;;;;;;5071210;28;19985;-76
2021/07/06 02:21:54;;;;;;;;;;;14.70;99.90;;;;;;5069734;28;19985;-77
2021/07/06 02:24:20;;;;;;;;;;;14.70;99.90;;;;;;5070048;28;20125;-76
2021/07/06 02:26:45;;;;;;;;;;;14.60;99.90;;;;;;5069875;28;19996;-76
2021/07/06 02:29:11;;;;;;;;;;;14.60;99.90;;;;;;5071424;28;19981;-76
2021/07/06 02:31:36;;;;;;;;;;;14.60;99.90;;;;;;5071260;28;20008;-77
2021/07/06 02:34:02;;;;;;;;;;;14.60;99.90;;;;;;5070811;28;20004;-76
2021/07/06 02:36:27;;;;;;;;;;;14.60;99.90;;;;;;5070376;28;19982;-76
2021/07/06 02:38:53;;;;;;;;;;;14.50;99.90;;;;;;5070351;28;20045;-76
2021/07/06 02:41:18;;;;;;;;;;;14.50;99.90;;;;;;5069264;28;19985;-76
2021/07/06 02:43:43;;;;;;;;;;;14.50;99.90;;;;;;5070809;28;20001;-76
2021/07/06 02:46:10;;;;;;;;;;;14.50;99.90;;;;;;5070677;28;19981;-77
2021/07/06 02:48:38;;;;;;;;;;;14.40;99.90;;;;;;5069602;28;19995;-77
2021/07/06 02:51:04;;;;;;;;;;;14.40;99.90;;;;;;5070875;28;20381;-77
2021/07/06 02:53:29;;;;;;;;;;;14.40;99.90;;;;;;5068647;28;20015;-77
2021/07/06 02:55:55;;;;;;;;;;;14.40;99.90;;;;;;5070445;28;19989;-76
2021/07/06 02:58:20;;;;;;;;;;;14.40;99.90;;;;;;5070581;28;20400;-76
2021/07/06 03:00:46;;;;;;;;;;;14.40;99.90;;;;;;5070916;28;20074;-77
2021/07/06 03:03:11;;;;;;;;;;;14.40;99.90;;;;;;5069495;28;19985;-77
2021/07/06 03:05:37;;;;;;;;;;;14.30;99.90;;;;;;5070376;28;19997;-76
2021/07/06 03:08:03;;;;;;;;;;;14.30;99.90;;;;;;5070729;28;20353;-77
2021/07/06 03:10:30;;;;;;;;;;;14.30;99.90;;;;;;5070187;28;20005;-76
2021/07/06 03:12:58;;;;;;;;;;;14.30;99.90;;;;;;5068848;28;20377;-76
2021/07/06 03:15:24;;;;;;;;;;;14.30;99.90;;;;;;5070820;28;20088;-77
2021/07/06 03:17:50;;;;;;;;;;;14.20;99.90;;;;;;5069461;28;19995;-76
2021/07/06 03:20:17;;;;;;;;;;;14.20;99.90;;;;;;5068953;28;19993;-77
2021/07/06 03:22:43;;;;;;;;;;;14.20;99.90;;;;;;5069140;28;19995;-77
2021/07/06 03:25:09;;;;;;;;;;;14.20;99.90;;;;;;5090698;22;20024;-75
2021/07/06 03:27:36;;;;;;;;;;;14.20;99.90;;;;;;5068565;28;20142;-76
2021/07/06 03:30:06;;;;;;;;;;;14.20;99.90;;;;;;5069734;28;20089;-76
2021/07/06 03:32:31;;;;;;;;;;;14.20;99.90;;;;;;5069854;28;20055;-75
2021/07/06 03:34:57;;;;;;;;;;;14.20;99.90;;;;;;5069511;28;20386;-76
2021/07/06 03:37:22;;;;;;;;;;;14.30;99.90;;;;;;5069588;28;20008;-76
2021/07/06 03:39:48;;;;;;;;;;;14.30;99.90;;;;;;5069560;28;19985;-76
2021/07/06 03:42:13;;;;;;;;;;;14.30;99.90;;;;;;5069557;28;20072;-76
2021/07/06 03:44:39;;;;;;;;;;;14.30;99.90;;;;;;5068190;28;20059;-76
2021/07/06 03:47:05;;;;;;;;;;;14.40;99.90;;;;;;5069450;28;20039;-76
2021/07/06 03:49:31;;;;;;;;;;;14.40;99.90;;;;;;5068196;28;20513;-76
2021/07/06 03:51:56;;;;;;;;;;;14.40;99.90;;;;;;5068169;28;20435;-77
2021/07/06 03:54:22;;;;;;;;;;;14.40;99.90;;;;;;5068086;28;20006;-76
2021/07/06 03:56:47;;;;;;;;;;;14.40;99.90;;;;;;5068100;28;19989;-76
2021/07/06 03:59:13;;;;;;;;;;;14.50;99.90;;;;;;5068157;28;19997;-75
2021/07/06 04:01:38;;;;;;;;;;;14.50;99.90;;;;;;5068084;28;20539;-75
2021/07/06 04:04:04;;;;;;;;;;;14.50;99.90;;;;;;5069982;28;20460;-76
2021/07/06 04:06:30;;;;;;;;;;;14.60;99.90;;;;;;5071956;28;20142;-75
2021/07/06 04:08:55;;;;;;;;;;;14.70;99.90;;;;;;5073411;28;19985;-75
2021/07/06 04:11:21;;;;;;;;;;;14.60;99.90;;;;;;5073604;28;20005;-76
2021/07/06 04:13:47;;;;;;;;;;;14.70;99.90;;;;;;5073025;28;19986;-76
2021/07/06 04:16:13;;;;;;;;;;;14.70;99.90;;;;;;5072889;28;20051;-75
2021/07/06 04:18:38;;;;;;;;;;;14.80;99.90;;;;;;5072988;28;19989;-75
2021/07/06 04:21:06;;;;;;;;;;;14.80;99.90;;;;;;5072876;28;20452;-75
2021/07/06 04:23:33;;;;;;;;;;;14.90;99.90;;;;;;5071559;28;20016;-75
2021/07/06 04:25:58;;;;;;;;;;;14.90;99.90;;;;;;5071390;28;20549;-75
2021/07/06 04:28:24;;;;;;;;;;;14.90;99.90;;;;;;5072780;28;20088;-76
2021/07/06 04:30:49;;;;;;;;;;;15.00;99.90;;;;;;5072801;28;20055;-76
2021/07/06 04:33:15;;;;;;;;;;;15.10;99.90;;;;;;5071433;28;20084;-76
2021/07/06 04:35:40;;;;;;;;;;;15.10;99.90;;;;;;5071307;28;20005;-76
2021/07/06 04:38:06;;;;;;;;;;;15.20;99.90;;;;;;5071384;28;20115;-75
2021/07/06 04:40:31;;;;;;;;;;;15.20;99.90;;;;;;5071339;28;19996;-75
2021/07/06 04:42:57;;;;;;;;;;;15.30;99.90;;;;;;5072488;28;19993;-76
2021/07/06 04:45:22;;;;;;;;;;;15.40;99.90;;;;;;5071056;28;20011;-76
2021/07/06 04:47:48;;;;;;;;;;;15.50;99.90;;;;;;5072941;28;19986;-75
2021/07/06 04:50:15;;;;;;;;;;;15.50;99.90;;;;;;5071211;28;20035;-76
2021/07/06 04:52:44;;;;;;;;;;;15.60;99.90;;;;;;5072506;28;19992;-75
2021/07/06 04:55:10;;;;;;;;;;;15.70;99.90;;;;;;5072510;28;20481;-75
2021/07/06 04:57:35;;;;;;;;;;;15.80;99.90;;;;;;5072187;28;20078;-75
2021/07/06 05:00:01;;;;;;;;;;;15.90;99.90;;;;;;5070918;28;19989;-75
2021/07/06 05:02:26;;;;;;;;;;;16.00;99.90;;;;;;5072120;28;19992;-75
2021/07/06 05:04:52;;;;;;;;;;;16.10;99.90;;;;;;5070778;28;20013;-75
2021/07/06 05:07:18;;;;;;;;;;;16.20;99.90;;;;;;5070789;28;19989;-75
2021/07/06 05:09:43;;;;;;;;;;;16.30;99.90;;;;;;5072056;28;20331;-75
2021/07/06 05:12:09;;;;;;;;;;;16.30;99.90;;;;;;5071848;28;20010;-75
2021/07/06 05:14:35;;;;;;;;;;;16.40;99.90;;;;;;5070173;28;20012;-76
2021/07/06 05:17:02;;;;;;;;;;;16.50;99.90;;;;;;5070447;28;19990;-75
2021/07/06 05:19:28;;;;;;;;;;;16.50;99.90;;;;;;5072361;28;19986;-75
2021/07/06 05:21:53;;;;;;;;;;;16.60;99.90;;;;;;5070526;28;19996;-75
2021/07/06 05:24:19;;;;;;;;;;;16.70;99.90;;;;;;5070324;28;20026;-75
2021/07/06 05:26:44;;;;;;;;;;;16.80;99.90;;;;;;5071707;28;20015;-76
2021/07/06 05:29:10;;;;;;;;;;;16.90;99.90;;;;;;5070697;28;19997;-77
2021/07/06 05:31:35;;;;;;;;;;;17.00;99.90;;;;;;5070549;28;20094;-76
2021/07/06 05:34:01;;;;;;;;;;;17.10;99.90;;;;;;5071894;28;19985;-76
2021/07/06 05:36:26;;;;;;;;;;;17.20;99.90;;;;;;5071546;28;20043;-75
2021/07/06 05:38:53;;;;;;;;;;;17.30;99.90;;;;;;5070311;28;20072;-77
2021/07/06 05:41:18;;;;;;;;;;;17.40;99.90;;;;;;5071655;28;20084;-77
2021/07/06 05:43:44;;;;;;;;;;;17.50;99.90;;;;;;5070418;28;20037;-77
2021/07/06 05:46:09;;;;;;;;;;;17.60;99.90;;;;;;5070664;28;20009;-77
2021/07/06 05:48:35;;;;;;;;;;;17.60;99.90;;;;;;5070852;28;20079;-77
2021/07/06 05:51:00;;;;;;;;;;;17.70;99.90;;;;;;5071302;28;20012;-77
2021/07/06 05:53:26;;;;;;;;;;;17.80;99.90;;;;;;5070191;28;20454;-76
2021/07/06 05:55:51;;;;;;;;;;;17.90;99.90;;;;;;5071110;28;20050;-77
2021/07/06 05:58:17;;;;;;;;;;;18.00;99.90;;;;;;5071259;28;20020;-77
2021/07/06 06:00:42;;;;;;;;;;;18.10;99.90;;;;;;5069957;28;19990;-77
2021/07/06 06:03:10;;;;;;;;;;;18.20;99.90;;;;;;5069940;28;19993;-76
2021/07/06 06:05:36;;;;;;;;;;;18.30;99.90;;;;;;5069632;28;20005;-77
2021/07/06 06:08:02;;;;;;;;;;;18.40;99.90;;;;;;5070901;28;19992;-77
2021/07/06 06:10:27;;;;;;;;;;;18.50;99.90;;;;;;5071025;28;20381;-77
2021/07/06 06:12:53;;;;;;;;;;;18.60;99.90;;;;;;5070905;28;20020;-77
2021/07/06 06:15:18;;;;;;;;;;;18.60;99.90;;;;;;5070722;28;20047;-77
2021/07/06 06:17:44;;;;;;;;;;;18.70;99.90;;;;;;5069447;28;19989;-77
2021/07/06 06:20:10;;;;;;;;;;;18.80;99.90;;;;;;5069405;28;20442;-76
2021/07/06 06:22:35;;;;;;;;;;;18.90;99.90;;;;;;5070518;28;20083;-77
2021/07/06 06:25:05;;;;;;;;;;;19.00;99.90;;;;;;5069083;28;20021;-77
2021/07/06 06:27:30;;;;;;;;;;;19.10;99.90;;;;;;5069504;28;20335;-77
2021/07/06 06:29:56;;;;;;;;;;;19.20;99.90;;;;;;5069109;28;20042;-77
2021/07/06 06:32:23;;;;;;;;;;;19.40;99.90;;;;;;5069221;28;20075;-77
2021/07/06 06:34:49;;;;;;;;;;;19.50;99.90;;;;;;5069022;28;20013;-77
2021/07/06 06:37:14;;;;;;;;;;;19.60;99.90;;;;;;5069361;28;19990;-77
2021/07/06 06:39:40;;;;;;;;;;;19.70;99.90;;;;;;5070366;28;20037;-77
2021/07/06 06:42:06;;;;;;;;;;;19.80;99.90;;;;;;5070268;28;19989;-77
2021/07/06 06:44:31;;;;;;;;;;;19.90;99.90;;;;;;5069036;28;20005;-77
2021/07/06 06:46:57;;;;;;;;;;;20.00;99.90;;;;;;5069101;28;20438;-77
2021/07/06 06:49:22;;;;;;;;;;;20.00;99.90;;;;;;5068880;28;19996;-75
2021/07/06 06:51:48;;;;;;;;;;;20.10;99.90;;;;;;5068923;28;20107;-78
2021/07/06 06:54:13;;;;;;;;;;;20.20;99.90;;;;;;5070287;28;20005;-78
2021/07/06 06:56:41;;;;;;;;;;;20.30;99.90;;;;;;5070698;28;20021;-78
2021/07/06 06:59:07;;;;;;;;;;;20.30;99.90;;;;;;5070051;28;20378;-77
2021/07/06 07:01:33;;;;;;;;;;;20.40;99.90;;;;;;5070016;28;19992;-78
2021/07/06 07:03:58;;;;;;;;;;;20.50;99.90;;;;;;5068749;28;19989;-77
2021/07/06 07:06:24;;;;;;;;;;;20.60;99.90;;;;;;5068979;28;19993;-78
2021/07/06 07:08:49;;;;;;;;;;;20.60;99.90;;;;;;5068973;28;20445;-77
2021/07/06 07:11:15;;;;;;;;;;;20.80;99.90;;;;;;5068770;28;20009;-77
2021/07/06 07:13:40;;;;;;;;;;;20.90;99.90;;;;;;5069887;28;20038;-78
2021/07/06 07:16:06;;;;;;;;;;;21.00;99.90;;;;;;5069832;28;20005;-77
2021/07/06 07:18:31;;;;;;;;;;;21.10;99.90;;;;;;5069760;28;20080;-77
2021/07/06 07:20:57;;;;;;;;;;;21.20;99.90;;;;;;5070086;28;19989;-77
2021/07/06 07:23:22;;;;;;;;;;;21.30;99.90;;;;;;5070070;28;20488;-77
2021/07/06 07:25:48;;;;;;;;;;;21.40;99.90;;;;;;5068493;28;20017;-77
2021/07/06 07:28:13;;;;;;;;;;;21.50;99.90;;;;;;5068506;28;19993;-77
2021/07/06 07:30:39;;;;;;;;;;;21.60;99.90;;;;;;5068435;28;20013;-77
2021/07/06 07:33:04;;;;;;;;;;;21.60;99.90;;;;;;5070413;28;20072;-77
2021/07/06 07:35:29;;;;;;;;;;;21.80;99.90;;;;;;5068925;28;20347;-77
2021/07/06 07:37:55;;;;;;;;;;;21.80;99.90;;;;;;5070206;28;20139;-77
2021/07/06 07:40:20;;;;;;;;;;;21.90;99.90;;;;;;5075778;28;19989;-77
2021/07/06 07:42:48;;;;;;;;;;;22.00;99.90;;;;;;5074957;28;19998;-78
2021/07/06 07:45:14;;;;;;;;;;;22.00;99.90;;;;;;5073593;28;20020;-77
2021/07/06 07:47:40;;;;;;;;;;;22.10;99.90;;;;;;5074945;28;20361;-78
2021/07/06 07:50:06;;;;;;;;;;;22.20;99.90;;;;;;5076104;28;19992;-78
2021/07/06 07:52:35;;;;;;;;;;;22.30;99.90;;;;;;5075814;28;19991;-77
2021/07/06 07:55:04;;;;;;;;;;;22.40;99.90;;;;;;5074691;28;20009;-78
2021/07/06 07:57:30;;;;;;;;;;;22.50;99.90;;;;;;5075769;28;19992;-78
2021/07/06 07:59:56;;;;;;;;;;;22.70;99.90;;;;;;5075381;28;19990;-78
2021/07/06 08:02:22;;;;;;;;;;;22.80;99.90;;;;;;5076046;28;19985;-78
2021/07/06 08:04:48;;;;;;;;;;;22.80;99.90;;;;;;5075024;28;20008;-78
2021/07/06 08:07:13;;;;;;;;;;;23.00;99.90;;;;;;5073785;28;19989;-78
2021/07/06 08:09:39;;;;;;;;;;;23.20;99.90;;;;;;5073179;28;20369;-77
2021/07/06 08:12:05;;;;;;;;;;;23.30;99.90;;;;;;5073365;28;20009;-78
2021/07/06 08:14:31;;;;;;;;;;;23.50;99.90;;;;;;5074514;28;20001;-78
2021/07/06 08:16:57;;;;;;;;;;;23.60;99.90;;;;;;5074416;28;19989;-78
2021/07/06 08:19:23;;;;;;;;;;;23.70;99.10;;;;;;5074572;28;19990;-77
2021/07/06 08:21:49;;;;;;;;;;;23.90;97.80;;;;;;5074820;28;20414;-78
2021/07/06 08:24:14;;;;;;;;;;;23.90;97.30;;;;;;5074566;28;20011;-77
2021/07/06 08:26:40;;;;;;;;;;;24.10;97.00;;;;;;5072922;28;19997;-77
2021/07/06 08:29:06;;;;;;;;;;;24.20;97.50;;;;;;5074558;28;20374;-77
2021/07/06 08:31:31;;;;;;;;;;;24.40;95.80;;;;;;5074872;28;20063;-77
2021/07/06 08:33:57;;;;;;;;;;;24.50;94.80;;;;;;5072852;28;19996;-77
2021/07/06 08:36:22;;;;;;;;;;;24.60;94.10;;;;;;5073324;28;19993;-76
2021/07/06 08:38:48;;;;;;;;;;;24.70;93.90;;;;;;5074772;28;20000;-78
2021/07/06 08:41:13;;;;;;;;;;;24.90;94.00;;;;;;5073746;28;20055;-77
2021/07/06 08:43:39;;;;;;;;;;;25.00;93.20;;;;;;5072895;28;19985;-77
2021/07/06 08:46:05;;;;;;;;;;;25.20;93.00;;;;;;5071248;28;20107;-77
2021/07/06 08:48:32;;;;;;;;;;;25.30;92.20;;;;;;5071217;28;20012;-77
2021/07/06 08:50:59;;;;;;;;;;;25.50;91.10;;;;;;5069956;28;20492;-76
2021/07/06 08:53:24;;;;;;;;;;;25.60;91.00;;;;;;5071223;28;20370;-77
2021/07/06 08:55:50;;;;;;;;;;;25.70;89.60;;;;;;5072717;28;20001;-77
2021/07/06 08:58:19;;;;;;;;;;;25.90;89.20;;;;;;5072397;28;20001;-77
2021/07/06 09:00:44;;;;;;;;;;;26.10;88.40;;;;;;5071026;28;19994;-77
2021/07/06 09:03:10;;;;;;;;;;;26.20;86.90;;;;;;5070968;28;20043;-77
2021/07/06 09:05:36;;;;;;;;;;;26.40;85.60;;;;;;5071244;28;20032;-77
2021/07/06 09:08:03;;;;;;;;;;;26.60;84.50;;;;;;5072660;28;20428;-77
2021/07/06 09:10:36;;;;;;;;;;;26.60;85.10;;;;;;5072478;28;20523;-77
2021/07/06 09:13:16;;;;;;;;;;;26.80;81.80;;;;;;5072140;28;20020;-77
2021/07/06 09:15:48;;;;;;;;;;;26.90;82.10;;;;;;5072196;28;20008;-77
2021/07/06 09:18:15;;;;;;;;;;;27.10;82.70;;;;;;5072147;28;20365;-77
2021/07/06 09:20:42;;;;;;;;;;;27.30;82.30;;;;;;5071893;28;19987;-77
2021/07/06 09:23:27;;;;;;;;;;;27.40;81.10;;;;;;5071920;28;20049;-77
2021/07/06 09:26:04;;;;;;;;;;;27.60;77.00;;;;;;5093120;22;20119;-76
2021/07/06 09:28:31;;;;;;;;;;;27.80;77.30;;;;;;5070497;28;20032;-76
2021/07/06 09:30:59;;;;;;;;;;;28.00;75.60;;;;;;5070439;28;20470;-76
2021/07/06 09:33:28;;;;;;;;;;;28.10;76.10;;;;;;5071669;28;19985;-76
2021/07/06 09:35:54;;;;;;;;;;;28.40;73.40;;;;;;5071808;28;20516;-75
2021/07/06 09:38:19;;;;;;;;;;;28.60;74.00;;;;;;5070312;28;19989;-76
2021/07/06 09:40:45;;;;;;;;;;;28.70;71.50;;;;;;5070227;28;20039;-75
2021/07/06 09:43:17;;;;;;;;;;;28.90;72.30;;;;;;5070517;28;20000;-76
2021/07/06 09:45:46;;;;;;;;;;;29.00;70.50;;;;;;5071354;28;20001;-76
